createdAt,value
2018-06-29T00:02:45.609Z,101434.77
2018-06-29T00:07:48.930Z,101422.00
2018-06-29T00:12:52.070Z,101415.38
2018-06-29T00:17:57.444Z,101413.78
2018-06-29T00:23:00.600Z,101418.30
2018-06-29T00:28:04.643Z,101421.63
2018-06-29T00:33:07.758Z,101421.91
2018-06-29T00:38:10.832Z,101416.34
2018-06-29T00:43:14.013Z,101427.48
2018-06-29T00:48:17.231Z,101427.13
2018-06-29T00:53:20.461Z,101430.37
2018-06-29T00:58:23.604Z,101429.07
2018-06-29T01:03:26.836Z,101438.62
2018-06-29T01:08:29.942Z,101437.45
2018-06-29T01:13:33.309Z,101441.58
2018-06-29T01:18:36.460Z,101440.16
2018-06-29T01:23:39.587Z,101432.30
2018-06-29T01:28:42.676Z,101421.84
2018-06-29T01:33:45.986Z,101417.59
2018-06-29T01:38:49.305Z,101413.56
2018-06-29T01:43:52.485Z,101420.75
2018-06-29T01:48:55.767Z,101422.95
2018-06-29T01:53:59.078Z,101424.73
2018-06-29T01:59:02.179Z,101421.69
2018-06-29T02:04:05.656Z,101420.03
2018-06-29T02:09:08.773Z,101402.83
2018-06-29T02:14:11.970Z,101402.20
2018-06-29T02:19:15.080Z,101399.75
2018-06-29T02:24:18.396Z,101402.52
2018-06-29T02:29:21.634Z,101401.17
2018-06-29T02:34:24.782Z,101400.69
2018-06-29T02:39:27.935Z,101393.73
2018-06-29T02:44:31.061Z,101395.12
2018-06-29T02:49:34.181Z,101394.55
2018-06-29T02:54:38.020Z,101386.95
2018-06-29T02:59:41.116Z,101385.47
2018-06-29T03:04:44.260Z,101379.73
2018-06-29T03:09:47.626Z,101378.95
2018-06-29T03:14:50.873Z,101374.18
2018-06-29T03:19:54.141Z,101368.89
2018-06-29T03:24:57.429Z,101376.43
2018-06-29T03:30:00.632Z,101365.44
2018-06-29T03:35:03.894Z,101352.53
2018-06-29T03:40:07.081Z,101350.92
2018-06-29T03:45:10.231Z,101342.56
2018-06-29T03:50:13.352Z,101337.67
2018-06-29T03:55:16.924Z,101338.77
2018-06-29T04:00:20.448Z,101344.28
2018-06-29T04:05:23.720Z,101348.25
2018-06-29T04:10:26.876Z,101343.66
2018-06-29T04:15:29.988Z,101337.58
2018-06-29T04:20:33.094Z,101329.38
2018-06-29T04:25:36.253Z,101337.37
2018-06-29T04:30:39.602Z,101332.80
2018-06-29T04:35:45.038Z,101331.00
2018-06-29T04:40:48.164Z,101332.97
2018-06-29T04:45:51.913Z,101323.84
2018-06-29T04:50:55.209Z,101322.78
2018-06-29T04:55:58.620Z,101310.75
2018-06-29T05:01:01.920Z,101314.47
2018-06-29T05:06:05.429Z,101317.38
2018-06-29T05:11:08.689Z,101317.68
2018-06-29T05:16:11.829Z,101318.56
2018-06-29T05:21:15.707Z,101313.88
2018-06-29T05:26:18.926Z,101311.73
2018-06-29T05:31:22.081Z,101307.69
2018-06-29T05:36:25.260Z,101305.98
2018-06-29T05:41:28.476Z,101302.42
2018-06-29T05:46:31.611Z,101308.88
2018-06-29T05:51:35.113Z,101313.26
2018-06-29T05:56:39.078Z,101317.34
2018-06-29T06:01:43.186Z,101318.69
2018-06-29T06:06:46.292Z,101317.41
2018-06-29T06:11:49.566Z,101323.55
2018-06-29T06:16:52.697Z,101313.58
2018-06-29T06:21:55.833Z,101310.93
2018-06-29T06:26:59.118Z,101317.45
2018-06-29T06:32:02.488Z,101317.28
2018-06-29T06:37:05.775Z,101318.23
2018-06-29T06:42:08.919Z,101315.08
2018-06-29T06:47:12.081Z,101313.20
2018-06-29T06:52:15.215Z,101314.42
2018-06-29T06:57:18.410Z,101310.17
2018-06-29T07:02:21.510Z,101308.86
2018-06-29T07:07:24.635Z,101303.25
2018-06-29T07:12:28.132Z,101300.95
2018-06-29T07:17:31.437Z,101303.10
2018-06-29T07:22:34.718Z,101295.00
2018-06-29T07:27:38.127Z,101310.95
2018-06-29T07:32:41.290Z,101294.91
2018-06-29T07:37:44.464Z,101287.14
2018-06-29T07:42:48.411Z,101288.34
2018-06-29T07:47:51.572Z,101287.62
2018-06-29T07:52:54.754Z,101285.19
2018-06-29T07:57:57.876Z,101269.89
2018-06-29T08:03:01.132Z,101271.57
2018-06-29T08:08:05.937Z,101265.77
2018-06-29T08:13:09.859Z,101265.83
2018-06-29T08:18:13.026Z,101261.25
2018-06-29T08:23:16.086Z,101255.19
2018-06-29T08:28:19.229Z,101241.05
2018-06-29T08:33:22.376Z,101240.05
2018-06-29T08:38:25.522Z,101238.83
2018-06-29T08:43:28.865Z,101235.05
2018-06-29T08:48:32.266Z,101228.14
2018-06-29T08:53:35.475Z,101226.19
2018-06-29T08:58:38.618Z,101216.19
2018-06-29T09:03:41.833Z,101206.70
2018-06-29T09:08:44.936Z,101204.16
2018-06-29T09:13:48.102Z,101200.57
2018-06-29T09:18:51.475Z,101208.84
2018-06-29T09:23:54.614Z,101200.18
2018-06-29T09:28:57.777Z,101191.20
2018-06-29T09:34:00.988Z,101194.28
2018-06-29T09:39:07.095Z,101188.22
2018-06-29T09:44:10.276Z,101174.03
2018-06-29T09:49:13.517Z,101180.75
2018-06-29T09:54:16.594Z,101166.37
2018-06-29T09:59:19.820Z,101167.59
2018-06-29T10:04:23.005Z,101155.75
2018-06-29T10:09:26.252Z,101161.16
2018-06-29T10:14:29.919Z,101150.16
2018-06-29T10:19:33.170Z,101151.82
2018-06-29T10:24:36.384Z,101147.14
2018-06-29T10:29:39.537Z,101134.80
2018-06-29T10:34:42.655Z,101140.05
2018-06-29T10:39:45.755Z,101129.92
2018-06-29T10:44:49.006Z,101115.50
2018-06-29T10:49:52.123Z,101112.57
2018-06-29T10:54:55.259Z,101101.80
2018-06-29T10:59:58.406Z,101111.62
2018-06-29T11:05:01.645Z,101102.95
2018-06-29T11:10:06.381Z,101097.45
2018-06-29T11:15:09.754Z,101095.70
2018-06-29T11:20:12.884Z,101080.86
2018-06-29T11:25:15.992Z,101080.41
2018-06-29T11:30:19.091Z,101071.64
2018-06-29T11:35:22.218Z,101073.84
2018-06-29T11:40:25.358Z,101064.41
2018-06-29T11:45:28.572Z,101063.79
2018-06-29T11:50:32.005Z,101063.20
2018-06-29T11:55:35.842Z,101057.91
2018-06-29T12:00:39.222Z,101063.25
2018-06-29T12:05:42.236Z,101056.34
2018-06-29T12:10:45.432Z,101042.98
2018-06-29T12:15:49.331Z,101032.03
2018-06-29T12:20:52.550Z,101034.69
2018-06-29T12:25:55.693Z,101026.37
2018-06-29T12:30:58.968Z,101023.41
2018-06-29T12:36:02.286Z,101010.54
2018-06-29T12:41:05.526Z,101007.88
2018-06-29T12:46:08.671Z,100999.81
2018-06-29T12:51:11.736Z,101003.63
2018-06-29T12:56:15.039Z,100982.50
2018-06-29T13:01:18.196Z,100979.88
2018-06-29T13:06:21.370Z,100972.59
2018-06-29T13:11:24.638Z,100966.22
2018-06-29T13:16:27.917Z,100972.67
2018-06-29T13:21:31.198Z,100964.77
2018-06-29T13:26:34.559Z,100959.70
2018-06-29T13:31:37.687Z,100969.12
2018-06-29T13:36:40.918Z,100955.95
2018-06-29T13:41:44.078Z,100948.56
2018-06-29T13:46:47.210Z,100939.16
2018-06-29T13:51:50.417Z,100936.20
2018-06-29T13:56:53.653Z,100938.05
2018-06-29T14:01:57.758Z,100938.95
2018-06-29T14:07:01.707Z,100937.11
2018-06-29T14:12:04.863Z,100916.31
2018-06-29T14:17:07.944Z,100922.99
2018-06-29T14:22:11.157Z,100919.81
2018-06-29T14:27:14.388Z,100932.56
2018-06-29T14:32:17.521Z,100935.52
2018-06-29T14:37:20.635Z,100921.78
2018-06-29T14:42:24.123Z,100931.49
2018-06-29T14:47:27.636Z,100926.86
2018-06-29T14:52:30.770Z,100926.47
2018-06-29T14:57:34.927Z,100920.39
2018-06-29T15:02:38.110Z,100914.39
2018-06-29T15:07:41.280Z,100907.42
2018-06-29T15:12:44.390Z,100900.89
2018-06-29T15:17:47.558Z,100902.47
2018-06-29T15:22:50.838Z,100898.47
2018-06-29T15:27:54.085Z,100894.77
2018-06-29T15:32:57.338Z,100885.80
2018-06-29T15:38:00.580Z,100892.75
2018-06-29T15:43:04.150Z,100900.39
2018-06-29T15:48:07.908Z,100889.86
2018-06-29T15:53:11.323Z,100885.44
2018-06-29T15:58:14.665Z,100895.45
2018-06-29T16:03:17.824Z,100894.55
2018-06-29T16:08:21.100Z,100904.59
2018-06-29T16:13:24.640Z,100896.84
2018-06-29T16:18:27.803Z,100909.23
2018-06-29T16:23:30.991Z,100932.61
2018-06-29T16:28:34.147Z,100935.91
2018-06-29T16:33:37.316Z,100943.92
2018-06-29T16:38:40.487Z,100950.97
2018-06-29T16:43:43.781Z,100951.07
2018-06-29T16:48:49.025Z,100963.44
2018-06-29T16:53:52.212Z,100950.78
2018-06-29T16:58:55.989Z,100969.61
2018-06-29T17:03:59.235Z,100996.77
2018-06-29T17:09:02.908Z,100989.23
2018-06-29T17:14:06.102Z,100987.38
2018-06-29T17:19:09.224Z,100998.09
2018-06-29T17:24:12.800Z,101001.19
2018-06-29T17:29:16.300Z,101008.93
2018-06-29T17:34:19.563Z,101013.45
2018-06-29T17:39:22.737Z,101021.16
2018-06-29T17:44:25.832Z,101026.77
2018-06-29T17:49:29.002Z,101035.13
2018-06-29T17:54:32.153Z,101031.23
2018-06-29T17:59:35.241Z,101033.67
2018-06-29T18:04:38.540Z,101044.81
2018-06-29T18:09:41.707Z,101044.95
2018-06-29T18:14:45.266Z,101060.59
2018-06-29T18:19:48.495Z,101062.84
2018-06-29T18:24:51.951Z,101061.31
2018-06-29T18:29:55.453Z,101066.86
2018-06-29T18:34:58.902Z,101079.08
2018-06-29T18:40:02.379Z,101083.11
2018-06-29T18:45:06.844Z,101080.05
2018-06-29T18:50:10.844Z,101080.13
2018-06-29T18:55:17.676Z,101080.96
2018-06-29T19:00:21.466Z,101090.70
2018-06-29T19:05:25.562Z,101105.84
2018-06-29T19:10:30.317Z,101121.37
2018-06-29T19:15:35.906Z,101125.75
2018-06-29T19:20:40.378Z,101134.39
2018-06-29T19:25:44.198Z,101139.41
2018-06-29T19:30:47.940Z,101143.48
2018-06-29T19:35:52.469Z,101146.44
2018-06-29T19:40:56.644Z,101156.36
2018-06-29T19:46:00.411Z,101157.63
2018-06-29T19:51:03.953Z,101165.94
2018-06-29T19:56:07.848Z,101170.47
2018-06-29T20:01:10.983Z,101176.29
2018-06-29T20:06:14.288Z,101180.38
2018-06-29T20:11:17.514Z,101195.09
2018-06-29T20:16:20.683Z,101191.68
2018-06-29T20:21:23.895Z,101195.08
2018-06-29T20:26:27.109Z,101202.45
2018-06-29T20:31:30.299Z,101208.25
2018-06-29T20:36:33.385Z,101214.62
2018-06-29T20:41:36.563Z,101220.69
2018-06-29T20:46:39.681Z,101230.05
2018-06-29T20:51:42.822Z,101239.66
2018-06-29T20:56:46.068Z,101248.95
2018-06-29T21:01:49.336Z,101247.16
2018-06-29T21:06:52.860Z,101259.53
2018-06-29T21:11:56.709Z,101263.98
2018-06-29T21:16:59.864Z,101265.85
2018-06-29T21:22:03.080Z,101277.89
2018-06-29T21:27:06.658Z,101282.17
2018-06-29T21:32:09.816Z,101287.43
2018-06-29T21:37:12.955Z,101284.35
2018-06-29T21:42:16.172Z,101290.66
2018-06-29T21:47:19.390Z,101296.02
2018-06-29T21:52:22.955Z,101301.64
2018-06-29T21:57:26.113Z,101315.97
2018-06-29T22:02:29.287Z,101319.00
2018-06-29T22:07:32.497Z,101331.95
2018-06-29T22:12:35.654Z,101338.24
2018-06-29T22:17:38.796Z,101334.11
2018-06-29T22:22:41.970Z,101345.03
2018-06-29T22:27:45.154Z,101338.20
2018-06-29T22:32:48.265Z,101347.34
2018-06-29T22:37:51.507Z,101352.20
2018-06-29T22:42:55.067Z,101365.78
2018-06-29T22:47:58.212Z,101359.20
2018-06-29T22:53:01.313Z,101370.00
2018-06-29T22:58:04.815Z,101375.65
2018-06-29T23:03:08.146Z,101377.83
2018-06-29T23:08:11.432Z,101385.64
2018-06-29T23:13:14.989Z,101388.86
2018-06-29T23:18:18.146Z,101387.22
2018-06-29T23:23:21.312Z,101389.03
2018-06-29T23:28:24.545Z,101387.86
2018-06-29T23:33:27.660Z,101383.27
2018-06-29T23:38:30.794Z,101402.52
2018-06-29T23:43:34.916Z,101402.77
2018-06-29T23:48:38.332Z,101408.67
2018-06-29T23:53:41.439Z,101417.81
2018-06-29T23:58:44.672Z,101421.09
